METAR Data
IDs: Format: Raw Decoded Include TAF

Data at: 0236 UTC 25 Jan 2020

METAR for:KIIB (Independence Muni, IA, US)
Text:KIIB 250215Z AUTO 33012KT 5SM BR OVC008 00/00 A2988 RMK AO2 T00001005
Temperature: 0.0°C ( 32°F)
Dewpoint: -0.5°C ( 31°F) [RH = 96%]
Pressure (altimeter):29.88 inches Hg (1011.9 mb)
Winds:from the NNW (330 degrees) at 14 MPH (12 knots; 6.2 m/s)
Visibility: 5 sm ( 8 km)
Ceiling:800 feet AGL
Clouds: overcast cloud deck at 800 feet AGL
Weather:BR (mist)
QC Flag:automated observation with no human augmentation